Time;durP1;ratioP1;P1;durP2;ratioP2;P2;SDS_P1;SDS_P2;PMS_P1;PMS_P2;Temp;Humidity;BMP_temperature;BMP_pressure;BME280_temperature;BME280_humidity;BME280_pressure;Samples;Min_cycle;Max_cycle;Signal;HPM_P1;HPM_P2
2023/11/07 00:02:10;;;;;;;15.18;7.50;;;;;;;;;;5060123;28;20221;-71
2023/11/07 00:04:36;;;;;;;14.02;7.55;;;9.40;99.90;;;;;;5060116;28;20025;-71
2023/11/07 00:07:02;;;;;;;11.43;6.07;;;9.60;99.90;;;;;;5060137;28;20044;-71
2023/11/07 00:09:28;;;;;;;15.77;7.47;;;9.50;99.90;;;;;;5060075;28;20029;-70
2023/11/07 00:11:55;;;;;;;16.88;6.85;;;;;;;;;;5059964;28;20025;-70
2023/11/07 00:14:21;;;;;;;12.63;6.22;;;;;;;;;;5060103;28;20044;-71
2023/11/07 00:16:50;;;;;;;17.17;7.00;;;9.60;99.90;;;;;;5059377;28;20027;-71
2023/11/07 00:19:16;;;;;;;16.45;6.90;;;9.60;99.90;;;;;;5057886;28;20100;-71
2023/11/07 00:21:43;;;;;;;13.57;5.95;;;9.70;99.90;;;;;;5059900;28;20324;-70
2023/11/07 00:24:09;;;;;;;15.48;5.65;;;9.70;99.90;;;;;;5059895;28;20066;-71
2023/11/07 00:26:35;;;;;;;15.05;7.35;;;9.50;99.90;;;;;;5059872;28;20021;-71
2023/11/07 00:29:01;;;;;;;18.13;7.90;;;;;;;;;;5041987;28;20374;-70
2023/11/07 00:31:27;;;;;;;18.33;8.45;;;10.00;99.90;;;;;;5059851;28;20044;-70
2023/11/07 00:33:54;;;;;;;18.70;8.82;;;;;;;;;;5041974;28;20029;-70
2023/11/07 00:36:20;;;;;;;18.77;7.95;;;9.40;99.90;;;;;;5060124;28;20024;-70
2023/11/07 00:38:45;;;;;;;17.42;9.35;;;9.40;99.90;;;;;;5055276;28;20037;-70
2023/11/07 00:41:13;;;;;;;17.73;8.73;;;9.10;99.90;;;;;;5059514;28;20045;-70
2023/11/07 00:43:39;;;;;;;16.10;8.15;;;9.20;99.90;;;;;;5059617;28;20017;-72
2023/11/07 00:46:05;;;;;;;18.20;8.50;;;9.00;99.90;;;;;;5059675;28;20100;-71
2023/11/07 00:48:31;;;;;;;17.45;9.57;;;;;;;;;;5059600;28;20221;-70
2023/11/07 00:50:57;;;;;;;21.90;9.00;;;9.20;99.90;;;;;;5059489;28;20088;-71
2023/11/07 00:53:23;;;;;;;16.77;9.27;;;9.00;99.90;;;;;;5060350;28;20028;-71
2023/11/07 00:55:49;;;;;;;22.27;9.25;;;9.00;99.90;;;;;;5063419;28;20289;-70
2023/11/07 00:58:15;;;;;;;18.10;9.02;;;8.80;99.90;;;;;;5045172;28;20036;-71
2023/11/07 01:00:41;;;;;;;18.98;9.25;;;;;;;;;;5063409;28;20396;-70
2023/11/07 01:03:07;;;;;;;19.83;9.15;;;;;;;;;;5063352;28;20278;-70
2023/11/07 01:05:33;;;;;;;18.38;8.50;;;9.00;99.90;;;;;;5063162;28;20016;-70
2023/11/07 01:08:00;;;;;;;17.55;9.07;;;8.80;99.90;;;;;;5063113;28;20428;-70
2023/11/07 01:10:27;;;;;;;19.92;9.48;;;;;;;;;;5062869;28;20020;-70
2023/11/07 01:12:53;;;;;;;18.23;9.88;;;;;;;;;;5062935;28;20104;-69
2023/11/07 01:15:19;;;;;;;18.65;8.45;;;8.90;99.90;;;;;;5063049;28;20044;-69
2023/11/07 01:17:45;;;;;;;21.35;8.30;;;8.80;99.90;;;;;;5063067;28;20025;-70
2023/11/07 01:20:11;;;;;;;14.90;7.40;;;;;;;;;;5062848;28;20051;-70
2023/11/07 01:22:37;;;;;;;12.25;5.95;;;;;;;;;;5044643;28;20032;-70
2023/11/07 01:25:04;;;;;;;15.55;7.32;;;9.00;99.90;;;;;;5062649;28;20232;-71
2023/11/07 01:27:31;;;;;;;15.75;8.23;;;8.90;99.90;;;;;;5044888;28;20025;-70
2023/11/07 01:29:57;;;;;;;15.43;6.63;;;9.20;99.90;;;;;;5044989;28;20013;-70
2023/11/07 01:32:23;;;;;;;17.92;7.75;;;;;;;;;;5062544;28;20052;-72
2023/11/07 01:34:49;;;;;;;18.95;8.40;;;8.70;99.90;;;;;;5062505;28;20009;-70
2023/11/07 01:37:15;;;;;;;13.40;7.85;;;9.00;99.90;;;;;;5062721;28;20324;-70
2023/11/07 01:39:41;;;;;;;16.52;7.90;;;;;;;;;;5062261;28;20315;-69
2023/11/07 01:42:08;;;;;;;22.88;8.88;;;8.90;99.90;;;;;;5062553;28;20088;-69
2023/11/07 01:44:34;;;;;;;19.35;8.27;;;8.70;99.90;;;;;;5062368;28;20382;-69
2023/11/07 01:47:00;;;;;;;21.55;8.38;;;8.50;99.90;;;;;;5062618;28;20021;-71
2023/11/07 01:49:27;;;;;;;18.77;7.25;;;8.60;99.90;;;;;;5062535;28;20052;-69
2023/11/07 01:51:57;;;;;;;16.25;6.68;;;8.70;99.90;;;;;;5044534;28;20033;-70
2023/11/07 01:54:26;;;;;;;11.05;6.88;;;8.60;99.90;;;;;;5062406;28;20386;-70
2023/11/07 01:56:52;;;;;;;12.15;5.38;;;8.80;99.90;;;;;;5062039;28;20337;-70
2023/11/07 01:59:18;;;;;;;12.60;4.75;;;8.80;99.90;;;;;;5062064;28;20031;-70
2023/11/07 02:01:47;;;;;;;23.10;4.95;;;8.80;99.90;;;;;;5062142;28;20021;-71
2023/11/07 02:04:13;;;;;;;11.98;5.00;;;;;;;;;;5061583;28;20036;-72
2023/11/07 02:06:39;;;;;;;14.38;5.22;;;;;;;;;;5044424;28;20021;-72
2023/11/07 02:09:08;;;;;;;14.57;5.53;;;8.70;99.90;;;;;;5062040;28;20025;-70
2023/11/07 02:11:34;;;;;;;11.15;5.68;;;;;;;;;;5061716;28;20021;-70
2023/11/07 02:14:00;;;;;;;17.98;6.05;;;;;;;;;;5044402;28;20060;-70
2023/11/07 02:16:26;;;;;;;15.93;6.88;;;;;;;;;;5043849;28;20321;-71
2023/11/07 02:18:52;;;;;;;16.38;6.88;;;8.70;99.90;;;;;;5043925;28;20075;-69
2023/11/07 02:21:17;;;;;;;13.70;6.32;;;8.50;99.90;;;;;;5061959;28;20016;-70
2023/11/07 02:23:43;;;;;;;14.27;6.65;;;;;;;;;;5061438;28;20025;-69
2023/11/07 02:26:09;;;;;;;16.10;6.15;;;;;;;;;;5061618;28;20023;-69
2023/11/07 02:28:36;;;;;;;17.48;6.88;;;8.70;99.90;;;;;;5061551;28;20021;-69
2023/11/07 02:31:03;;;;;;;13.93;6.22;;;8.70;99.90;;;;;;5061565;28;20021;-69
2023/11/07 02:33:29;;;;;;;22.15;4.97;;;;;;;;;;5061513;28;20060;-69
2023/11/07 02:35:55;;;;;;;16.55;4.50;;;8.90;99.90;;;;;;5061207;28;20013;-70
2023/11/07 02:38:22;;;;;;;9.05;4.07;;;;;;;;;;5061314;28;20029;-70
2023/11/07 02:40:49;;;;;;;12.30;4.68;;;;;;;;;;5037013;28;20221;-69
2023/11/07 02:43:15;;;;;;;11.15;3.72;;;;;;;;;;5061372;28;20029;-69
2023/11/07 02:45:41;;;;;;;16.13;3.97;;;;;;;;;;5061427;28;20076;-70
2023/11/07 02:48:07;;;;;;;9.93;3.45;;;8.60;99.90;;;;;;5061274;28;20020;-70
2023/11/07 02:50:33;;;;;;;11.13;5.15;;;;;;;;;;5061136;28;20217;-70
2023/11/07 02:52:59;;;;;;;8.27;3.95;;;;;;;;;;5060886;28;20033;-70
2023/11/07 02:55:25;;;;;;;18.70;4.57;;;;;;;;;;5060863;28;20320;-70
2023/11/07 02:57:51;;;;;;;15.38;5.47;;;8.80;99.90;;;;;;5061202;28;20021;-72
2023/11/07 03:00:17;;;;;;;15.65;6.55;;;8.80;99.90;;;;;;5060748;28;20062;-70
2023/11/07 03:02:43;;;;;;;10.90;4.70;;;8.80;99.90;;;;;;5061089;28;20048;-69
2023/11/07 03:05:08;;;;;;;14.45;5.63;;;9.00;99.90;;;;;;5060791;28;20285;-71
2023/11/07 03:07:35;;;;;;;13.13;5.82;;;8.90;99.90;;;;;;5060479;28;20036;-71
2023/11/07 03:10:02;;;;;;;12.80;5.50;;;9.10;99.90;;;;;;5060745;28;20029;-71
2023/11/07 03:12:29;;;;;;;12.70;4.95;;;8.70;99.90;;;;;;5060551;28;20039;-72
2023/11/07 03:14:55;;;;;;;17.85;5.35;;;8.70;99.90;;;;;;5060549;28;20559;-70
2023/11/07 03:17:23;;;;;;;14.93;5.45;;;8.70;99.90;;;;;;5059895;28;20195;-78
2023/11/07 03:19:51;;;;;;;19.00;6.65;;;8.90;99.90;;;;;;5060636;28;20008;-79
2023/11/07 03:22:19;;;;;;;11.25;6.82;;;8.80;99.90;;;;;;5042627;28;20099;-73
2023/11/07 03:24:48;;;;;;;21.30;7.50;;;8.90;99.90;;;;;;5060463;28;20017;-73
2023/11/07 03:27:14;;;;;;;;;;;8.80;99.90;;;;;;5061090;28;20031;-72
2023/11/07 03:29:40;;;;;;;12.05;5.70;;;8.70;99.90;;;;;;5060644;28;19901;-73
2023/11/07 03:32:06;;;;;;;13.90;5.95;;;;;;;;;;5060599;28;20025;-72
2023/11/07 03:34:32;;;;;;;15.73;6.40;;;8.40;99.90;;;;;;5045909;28;20127;-73
2023/11/07 03:36:57;;;;;;;17.15;7.03;;;8.40;99.90;;;;;;5023025;28;20024;-73
2023/11/07 03:39:23;;;;;;;18.10;5.78;;;;;;;;;;5040329;28;20021;-72
2023/11/07 03:41:49;;;;;;;14.23;5.43;;;8.80;99.90;;;;;;5022718;28;20363;-73
2023/11/07 03:44:15;;;;;;;13.23;5.70;;;;;;;;;;5022765;28;20040;-77
2023/11/07 03:46:42;;;;;;;15.48;4.80;;;;;;;;;;5040231;28;20026;-73
2023/11/07 03:49:08;;;;;;;13.98;5.05;;;8.50;99.90;;;;;;5022682;28;20043;-73
2023/11/07 03:51:35;;;;;;;15.68;6.05;;;8.30;99.90;;;;;;5040384;28;20055;-73
2023/11/07 03:54:00;;;;;;;13.13;4.82;;;8.40;99.90;;;;;;5040343;28;20408;-73
2023/11/07 03:56:27;;;;;;;15.00;5.40;;;;;;;;;;5040327;28;20217;-73
2023/11/07 03:58:52;;;;;;;13.10;4.55;;;8.40;99.90;;;;;;5040616;28;20018;-74
2023/11/07 04:01:18;;;;;;;8.80;3.75;;;8.60;99.90;;;;;;5040531;28;20048;-75
2023/11/07 04:03:44;;;;;;;13.90;4.18;;;;;;;;;;5040295;28;20248;-73
2023/11/07 04:06:10;;;;;;;11.52;4.93;;;8.60;99.90;;;;;;5040143;28;20033;-74
2023/11/07 04:08:36;;;;;;;14.57;4.10;;;;;;;;;;5040060;28;20356;-73
2023/11/07 04:11:02;;;;;;;9.60;4.68;;;;;;;;;;5022398;28;20281;-74
2023/11/07 04:13:28;;;;;;;11.63;3.67;;;9.10;99.90;;;;;;5040075;28;20049;-72
2023/11/07 04:15:57;;;;;;;9.07;3.75;;;8.70;99.90;;;;;;5040000;28;20020;-70
2023/11/07 04:18:23;;;;;;;8.40;3.78;;;8.60;99.90;;;;;;5040405;28;20021;-70
2023/11/07 04:20:50;;;;;;;13.57;4.53;;;8.60;99.90;;;;;;5040272;28;20025;-70
2023/11/07 04:23:16;;;;;;;8.00;3.97;;;;;;;;;;5039949;28;20049;-70
2023/11/07 04:25:43;;;;;;;9.45;4.70;;;;;;;;;;5040119;28;20025;-70
2023/11/07 04:28:09;;;;;;;9.25;4.38;;;8.70;99.90;;;;;;5041914;28;20301;-73
2023/11/07 04:30:35;;;;;;;14.73;4.93;;;8.80;99.90;;;;;;5043716;28;20109;-71
2023/11/07 04:33:00;;;;;;;16.63;4.53;;;8.70;99.90;;;;;;5043809;28;20324;-70
2023/11/07 04:35:26;;;;;;;10.25;4.35;;;;;;;;;;5043711;28;20029;-71
2023/11/07 04:37:55;;;;;;;13.57;4.63;;;;;;;;;;5043636;28;20099;-71
2023/11/07 04:40:21;;;;;;;4.22;3.25;;;;;;;;;;5046452;28;20049;-71
2023/11/07 04:42:47;;;;;;;12.30;4.05;;;8.40;99.90;;;;;;5051720;28;20057;-70
2023/11/07 04:45:13;;;;;;;12.38;3.13;;;8.10;99.90;;;;;;5063584;28;20021;-70
2023/11/07 04:47:39;;;;;;;11.75;2.67;;;;;;;;;;5045415;28;20373;-70
2023/11/07 04:50:06;;;;;;;13.35;2.38;;;8.50;99.90;;;;;;5063201;28;20021;-70
2023/11/07 04:52:35;;;;;;;3.25;2.50;;;8.30;99.90;;;;;;5063276;28;20025;-70
2023/11/07 04:55:00;;;;;;;16.02;2.97;;;8.50;99.90;;;;;;5045858;28;20301;-70
2023/11/07 04:57:27;;;;;;;9.82;3.00;;;8.50;99.90;;;;;;5063216;28;20059;-70
2023/11/07 04:59:54;;;;;;;12.95;2.33;;;;;;;;;;5063193;28;20021;-70
2023/11/07 05:02:20;;;;;;;9.85;2.70;;;8.40;99.90;;;;;;5063171;28;20029;-70
2023/11/07 05:04:46;;;;;;;10.80;3.13;;;8.40;99.90;;;;;;5063260;28;20032;-70
2023/11/07 05:07:12;;;;;;;12.30;2.38;;;8.60;99.90;;;;;;5063039;28;20378;-70
2023/11/07 05:09:38;;;;;;;11.45;2.15;;;;;;;;;;5063212;28;20016;-70
2023/11/07 05:12:05;;;;;;;10.80;2.25;;;8.50;99.90;;;;;;5062772;28;20020;-71
2023/11/07 05:14:32;;;;;;;7.13;2.42;;;8.60;99.90;;;;;;5062850;28;20103;-70
2023/11/07 05:16:59;;;;;;;5.78;2.20;;;;;;;;;;5044665;28;20375;-69
2023/11/07 05:19:25;;;;;;;7.25;2.50;;;8.30;99.90;;;;;;5044114;28;20024;-71
2023/11/07 05:21:51;;;;;;;4.57;2.05;;;;;;;;;;5062120;28;20020;-74
2023/11/07 05:24:17;;;;;;;6.30;2.58;;;8.50;99.90;;;;;;5061884;28;20051;-72
2023/11/07 05:26:46;;;;;;;12.90;2.45;;;8.50;99.90;;;;;;5061984;28;20012;-72
2023/11/07 05:29:13;;;;;;;;;;;8.60;99.90;;;;;;5044892;28;20036;-72
2023/11/07 05:31:39;;;;;;;5.75;2.38;;;8.60;99.90;;;;;;5062589;28;19920;-72
2023/11/07 05:34:06;;;;;;;12.65;2.70;;;;;;;;;;5062498;28;20013;-70
2023/11/07 05:36:32;;;;;;;12.15;2.47;;;;;;;;;;5062643;28;20039;-70
2023/11/07 05:38:58;;;;;;;11.60;2.85;;;8.60;99.90;;;;;;5061947;28;20327;-71
2023/11/07 05:41:25;;;;;;;11.13;2.80;;;;;;;;;;5062186;28;20056;-74
2023/11/07 05:43:52;;;;;;;9.60;2.25;;;8.50;99.90;;;;;;5062665;28;20021;-74
2023/11/07 05:46:18;;;;;;;11.57;3.10;;;8.60;99.90;;;;;;5062223;28;20059;-72
2023/11/07 05:48:44;;;;;;;6.63;2.33;;;8.60;99.90;;;;;;5062248;28;20343;-74
2023/11/07 05:51:10;;;;;;;12.00;3.28;;;8.50;99.90;;;;;;5062262;28;20016;-74
2023/11/07 05:53:37;;;;;;;7.28;2.42;;;;;;;;;;5061899;28;20237;-74
2023/11/07 05:56:03;;;;;;;4.35;2.17;;;8.20;99.90;;;;;;5062093;28;20096;-74
2023/11/07 05:58:29;;;;;;;10.90;3.03;;;;;;;;;;5061990;28;20032;-73
2023/11/07 06:00:55;;;;;;;14.15;2.05;;;8.70;99.90;;;;;;5062007;28;20411;-74
2023/11/07 06:03:21;;;;;;;7.78;1.77;;;;;;;;;;5061980;28;20029;-75
2023/11/07 06:05:47;;;;;;;8.02;2.45;;;8.80;99.90;;;;;;5061753;28;20024;-74
2023/11/07 06:08:13;;;;;;;9.85;1.98;;;;;;;;;;5061973;28;20067;-74
2023/11/07 06:10:39;;;;;;;5.05;2.25;;;8.80;99.90;;;;;;5061821;28;20009;-75
2023/11/07 06:13:05;;;;;;;11.30;2.17;;;;;;;;;;5061784;28;20106;-75
2023/11/07 06:15:31;;;;;;;7.78;2.70;;;;;;;;;;5044391;28;20064;-74
2023/11/07 06:17:57;;;;;;;11.23;1.98;;;8.60;99.90;;;;;;5061751;28;20021;-73
2023/11/07 06:20:23;;;;;;;12.18;1.92;;;8.50;99.90;;;;;;5043910;28;20028;-73
2023/11/07 06:22:50;;;;;;;8.25;2.45;;;8.70;99.90;;;;;;5061588;28;20021;-75
2023/11/07 06:25:16;;;;;;;10.52;3.22;;;;;;;;;;5061611;28;20563;-75
2023/11/07 06:27:42;;;;;;;8.63;3.85;;;8.40;99.90;;;;;;5061587;28;20028;-75
2023/11/07 06:30:09;;;;;;;8.07;2.90;;;;;;;;;;5015880;28;20014;-75
2023/11/07 06:32:36;;;;;;;12.75;3.95;;;8.50;99.90;;;;;;5042072;28;20139;-72
2023/11/07 06:35:05;;;;;;;17.08;6.78;;;8.60;99.90;;;;;;5041586;28;20021;-72
2023/11/07 06:37:33;;;;;;;12.15;5.85;;;;;;;;;;5041525;28;20344;-71
2023/11/07 06:40:13;;;;;;;9.65;5.20;;;8.40;99.90;;;;;;5023470;28;20353;-71
2023/11/07 06:42:42;;;;;;;14.88;7.03;;;8.20;99.90;;;;;;5043399;28;20013;-69
2023/11/07 06:45:12;;;;;;;15.35;8.32;;;8.30;99.90;;;;;;5052028;28;20017;-69
2023/11/07 06:47:42;;;;;;;17.15;7.72;;;8.50;99.90;;;;;;5057777;28;20028;-70
2023/11/07 06:50:09;;;;;;;25.83;8.32;;;8.00;99.90;;;;;;5040346;28;20025;-70
2023/11/07 06:52:38;;;;;;;15.02;6.32;;;8.20;99.90;;;;;;5041075;28;20032;-70
2023/11/07 06:55:05;;;;;;;13.32;6.20;;;;;;;;;;5023201;28;20024;-70
2023/11/07 06:57:33;;;;;;;14.00;6.57;;;8.30;99.90;;;;;;5040237;28;20248;-70
2023/11/07 06:59:59;;;;;;;13.35;6.47;;;;;;;;;;5038965;28;20055;-70
2023/11/07 07:02:25;;;;;;;13.93;5.30;;;8.10;99.90;;;;;;5039442;28;20029;-69
2023/11/07 07:04:51;;;;;;;10.40;3.72;;;;;;;;;;5039381;28;20256;-70
2023/11/07 07:07:19;;;;;;;9.25;3.65;;;;;;;;;;5022243;28;20345;-70
2023/11/07 07:09:45;;;;;;;10.23;3.53;;;;;;;;;;5022745;28;20021;-70
2023/11/07 07:12:10;;;;;;;10.05;3.70;;;8.90;99.90;;;;;;5040911;28;20033;-70
2023/11/07 07:14:36;;;;;;;9.27;4.45;;;;;;;;;;5041123;28;20294;-70
2023/11/07 07:17:02;;;;;;;7.72;3.45;;;9.20;99.90;;;;;;5039712;28;20131;-70
2023/11/07 07:19:28;;;;;;;10.98;3.25;;;;;;;;;;5023251;28;20025;-69
2023/11/07 07:21:55;;;;;;;10.73;4.07;;;;;;;;;;5040970;28;20023;-70
2023/11/07 07:24:21;;;;;;;6.32;3.63;;;;;;;;;;5040960;28;20025;-70
2023/11/07 07:26:48;;;;;;;14.45;4.03;;;10.10;99.90;;;;;;5040657;28;20021;-70
2023/11/07 07:29:15;;;;;;;16.70;5.55;;;9.90;99.90;;;;;;5040557;28;20313;-69
2023/11/07 07:31:41;;;;;;;10.27;4.47;;;10.30;99.90;;;;;;5040559;28;20406;-70
2023/11/07 07:34:12;;;;;;;12.25;5.07;;;10.30;99.90;;;;;;5040505;28;20348;-70
2023/11/07 07:36:43;;;;;;;10.55;4.00;;;10.20;99.90;;;;;;5022654;28;20034;-70
2023/11/07 07:39:32;;;;;;;11.27;4.20;;;10.60;99.90;;;;;;5040335;28;20057;-69
2023/11/07 07:42:09;;;;;;;8.57;3.50;;;10.50;99.90;;;;;;5020548;28;20068;-70
2023/11/07 07:44:40;;;;;;;9.40;4.00;;;10.90;99.90;;;;;;5020460;28;20061;-69
2023/11/07 07:47:07;;;;;;;13.45;5.93;;;;;;;;;;5020589;28;20034;-69
2023/11/07 07:49:35;;;;;;;13.68;6.80;;;;;;;;;;5020448;28;20037;-70
2023/11/07 07:52:02;;;;;;;15.10;7.15;;;;;;;;;;5020336;28;20029;-70
2023/11/07 07:54:31;;;;;;;15.15;8.10;;;;;;;;;;5002699;28;20026;-70
2023/11/07 07:56:57;;;;;;;11.38;6.82;;;;;;;;;;5020336;28;20586;-69
2023/11/07 07:59:23;;;;;;;10.63;6.15;;;11.30;99.90;;;;;;5020224;28;20014;-70
2023/11/07 08:01:55;;;;;;;9.95;6.38;;;11.00;99.90;;;;;;5021255;28;20009;-70
2023/11/07 08:04:23;;;;;;;13.38;6.30;;;10.90;99.90;;;;;;5026748;28;20022;-70
2023/11/07 08:06:49;;;;;;;16.20;6.38;;;11.00;99.90;;;;;;5026803;28;20253;-70
2023/11/07 08:09:18;;;;;;;13.23;6.78;;;;;;;;;;5026885;28;20022;-70
2023/11/07 08:11:45;;;;;;;19.85;6.07;;;11.20;99.90;;;;;;5026675;28;20010;-70
2023/11/07 08:14:12;;;;;;;13.23;5.80;;;;;;;;;;5027045;28;20037;-69
2023/11/07 08:16:38;;;;;;;12.57;5.30;;;;;;;;;;5026733;28;20178;-70
2023/11/07 08:19:04;;;;;;;11.90;6.30;;;;;;;;;;5022617;28;20073;-69
2023/11/07 08:21:30;;;;;;;14.50;6.22;;;;;;;;;;5023163;28;20082;-70
2023/11/07 08:23:57;;;;;;;11.23;6.32;;;;;;;;;;5026542;28;20326;-69
2023/11/07 08:26:25;;;;;;;14.30;6.25;;;;;;;;;;5019991;28;20525;-70
2023/11/07 08:28:51;;;;;;;12.30;6.38;;;;;;;;;;5013174;28;20021;-70
2023/11/07 08:31:16;;;;;;;13.27;6.47;;;11.40;99.90;;;;;;5006870;28;20089;-70
2023/11/07 08:33:43;;;;;;;13.98;5.60;;;11.40;99.90;;;;;;5007115;28;20064;-70
2023/11/07 08:36:09;;;;;;;12.18;6.13;;;11.50;99.90;;;;;;5029343;28;20025;-69
2023/11/07 08:38:37;;;;;;;11.77;6.68;;;11.50;99.90;;;;;;5016651;28;20263;-70
2023/11/07 08:41:03;;;;;;;15.90;6.97;;;11.60;99.00;;;;;;5044091;28;20057;-70
2023/11/07 08:43:31;;;;;;;12.45;6.15;;;;;;;;;;5046182;28;20021;-70
2023/11/07 08:45:56;;;;;;;13.20;6.53;;;12.10;99.80;;;;;;5064270;28;20025;-70
2023/11/07 08:48:23;;;;;;;12.63;6.53;;;;;;;;;;5066359;28;20031;-70
2023/11/07 08:50:51;;;;;;;11.20;5.97;;;;;;;;;;5048279;28;20033;-70
2023/11/07 08:53:18;;;;;;;8.15;6.00;;;12.00;99.90;;;;;;5066430;28;20064;-70
2023/11/07 08:55:44;;;;;;;12.15;6.50;;;;;;;;;;5062448;28;20013;-70
2023/11/07 08:58:10;;;;;;;11.35;5.78;;;;;;;;;;5046447;28;20025;-70
2023/11/07 09:00:39;;;;;;;14.45;6.18;;;;;;;;;;5046446;28;20028;-70
2023/11/07 09:03:05;;;;;;;9.82;5.43;;;12.80;98.40;;;;;;5028520;28;20021;-71
2023/11/07 09:05:31;;;;;;;16.50;5.55;;;13.10;96.90;;;;;;5046345;28;20092;-71
2023/11/07 09:07:57;;;;;;;10.60;5.45;;;;;;;;;;5046264;28;20025;-71
2023/11/07 09:10:22;;;;;;;12.13;4.90;;;13.30;99.10;;;;;;5046282;28;20017;-70
2023/11/07 09:12:48;;;;;;;11.95;5.68;;;;;;;;;;5028340;28;20049;-71
2023/11/07 09:15:14;;;;;;;14.68;5.53;;;;;;;;;;5023042;28;20022;-70
2023/11/07 09:17:41;;;;;;;12.00;5.60;;;12.80;93.60;;;;;;5023636;28;20261;-71
2023/11/07 09:20:11;;;;;;;6.80;5.07;;;12.30;99.40;;;;;;5023177;28;20302;-71
2023/11/07 09:22:38;;;;;;;7.57;5.07;;;12.60;99.50;;;;;;5023347;28;20209;-72
2023/11/07 09:25:06;;;;;;;9.45;4.95;;;13.00;99.70;;;;;;5005468;28;20372;-72
2023/11/07 09:27:33;;;;;;;8.13;5.53;;;12.80;98.70;;;;;;5025505;28;20045;-72
2023/11/07 09:29:59;;;;;;;8.48;5.13;;;12.90;98.70;;;;;;5042497;28;20010;-72
2023/11/07 09:32:26;;;;;;;7.75;5.25;;;13.10;93.40;;;;;;5024507;28;20068;-72
2023/11/07 09:34:55;;;;;;;9.52;5.55;;;13.40;97.90;;;;;;5005158;28;20028;-72
2023/11/07 09:37:21;;;;;;;8.68;5.32;;;;;;;;;;5022465;28;20025;-71
2023/11/07 09:39:48;;;;;;;9.27;5.45;;;13.40;97.70;;;;;;5022755;28;20061;-71
2023/11/07 09:42:14;;;;;;;5.95;4.80;;;13.50;97.20;;;;;;5036847;28;20071;-71
2023/11/07 09:44:40;;;;;;;12.27;4.88;;;;;;;;;;5042194;28;20025;-72
2023/11/07 09:47:07;;;;;;;9.73;5.78;;;;;;;;;;5042360;28;20033;-71
2023/11/07 09:49:33;;;;;;;9.02;5.55;;;13.50;91.60;;;;;;5042163;28;20295;-71
2023/11/07 09:52:04;;;;;;;6.35;4.85;;;13.50;93.00;;;;;;5041864;28;20024;-72
2023/11/07 09:54:32;;;;;;;8.55;4.70;;;13.30;91.90;;;;;;5042068;28;20408;-72
2023/11/07 09:57:08;;;;;;;14.65;5.10;;;13.40;91.60;;;;;;5041628;28;20033;-71
2023/11/07 09:59:38;;;;;;;11.52;4.72;;;13.30;96.40;;;;;;5042081;28;20080;-72
2023/11/07 10:02:08;;;;;;;15.07;4.80;;;13.40;96.50;;;;;;5041757;28;20059;-72
2023/11/07 10:04:39;;;;;;;11.98;4.50;;;13.30;96.30;;;;;;5041853;28;20009;-71
2023/11/07 10:07:05;;;;;;;8.57;4.78;;;;;;;;;;5039474;28;20040;-72
2023/11/07 10:09:31;;;;;;;8.85;5.47;;;;;;;;;;5021994;28;20026;-71
2023/11/07 10:11:58;;;;;;;9.95;5.38;;;13.00;97.20;;;;;;5004181;28;20029;-72
2023/11/07 10:14:24;;;;;;;11.57;5.53;;;;;;;;;;5038070;28;20032;-72
2023/11/07 10:16:58;;;;;;;9.98;5.20;;;12.80;91.90;;;;;;5041743;28;20052;-72
2023/11/07 10:19:25;;;;;;;15.85;5.82;;;12.80;97.00;;;;;;5041693;28;20080;-72
2023/11/07 10:21:51;;;;;;;11.43;5.80;;;;;;;;;;5041464;28;20022;-73
2023/11/07 10:24:18;;;;;;;15.80;10.68;;;13.10;97.30;;;;;;5041655;28;20266;-73
2023/11/07 10:26:57;;;;;;;17.48;11.10;;;12.90;96.00;;;;;;5040668;28;20024;-72
2023/11/07 10:29:26;;;;;;;20.95;11.88;;;13.10;97.70;;;;;;5041387;28;20013;-72
2023/11/07 10:32:09;;;;;;;16.73;11.55;;;12.90;92.50;;;;;;5030515;28;20044;-72
2023/11/07 10:34:39;;;;;;;20.08;11.85;;;;;;;;;;5021509;28;20022;-73
2023/11/07 10:37:05;;;;;;;17.83;10.85;;;;;;;;;;5029159;28;20043;-72
2023/11/07 10:39:33;;;;;;;17.00;11.20;;;13.20;92.50;;;;;;5023231;28;20055;-73
2023/11/07 10:42:18;;;;;;;17.73;11.23;;;13.30;97.70;;;;;;5041211;28;20022;-72
2023/11/07 10:44:48;;;;;;;14.25;9.40;;;;;;;;;;5039764;28;20301;-72
2023/11/07 10:47:15;;;;;;;16.65;10.10;;;13.30;97.30;;;;;;5040949;28;20021;-72
2023/11/07 10:49:44;;;;;;;15.02;10.63;;;12.60;96.70;;;;;;5040850;28;20022;-72
2023/11/07 10:52:10;;;;;;;20.15;11.35;;;;;;;;;;5021007;28;20116;-72
2023/11/07 10:54:38;;;;;;;18.52;11.07;;;;;;;;;;5021396;28;20342;-71
2023/11/07 10:57:09;;;;;;;18.38;11.77;;;11.70;99.60;;;;;;5021123;28;20025;-72
2023/11/07 10:59:36;;;;;;;18.85;11.90;;;11.70;94.60;;;;;;5020926;28;20025;-73
2023/11/07 11:02:03;;;;;;;18.73;12.60;;;11.60;95.00;;;;;;5021251;28;20040;-73
2023/11/07 11:04:36;;;;;;;18.77;12.93;;;11.60;99.90;;;;;;5002913;28;20030;-72
2023/11/07 11:07:04;;;;;;;20.38;12.63;;;13.20;96.40;;;;;;5020701;28;20025;-73
2023/11/07 11:09:32;;;;;;;22.52;12.82;;;11.20;99.90;;;;;;5021227;28;20063;-73
2023/11/07 11:12:01;;;;;;;21.50;13.05;;;10.90;99.90;;;;;;5020758;28;20029;-73
2023/11/07 11:14:27;;;;;;;19.65;11.50;;;;;;;;;;5003446;28;20349;-72
2023/11/07 11:17:18;;;;;;;23.48;13.02;;;11.10;98.00;;;;;;5020438;28;20036;-72
2023/11/07 11:20:22;;;;;;;21.30;12.65;;;11.20;97.20;;;;;;5018759;28;20104;-72
2023/11/07 11:22:57;;;;;;;17.25;11.73;;;10.90;97.30;;;;;;4996906;28;20238;-72
2023/11/07 11:25:32;;;;;;;18.33;11.82;;;10.90;97.40;;;;;;5020450;28;20096;-72
2023/11/07 11:28:05;;;;;;;18.35;12.32;;;10.90;97.50;;;;;;5020386;28;20021;-72
2023/11/07 11:30:32;;;;;;;20.88;12.15;;;10.90;97.50;;;;;;5025681;28;20305;-72
2023/11/07 11:33:11;;;;;;;18.67;12.18;;;10.90;97.40;;;;;;5056955;28;20431;-73
2023/11/07 11:35:43;;;;;;;16.02;11.50;;;10.90;99.90;;;;;;5059869;28;20013;-73
2023/11/07 11:38:19;;;;;;;16.67;11.90;;;11.10;99.90;;;;;;5041403;28;20229;-73
2023/11/07 11:40:51;;;;;;;18.38;11.48;;;11.20;97.40;;;;;;5034758;28;20049;-72
2023/11/07 11:43:21;;;;;;;21.20;11.68;;;;;;;;;;5059739;28;20051;-72
2023/11/07 11:45:48;;;;;;;20.20;12.63;;;11.00;99.90;;;;;;5058370;28;20048;-72
2023/11/07 11:48:15;;;;;;;21.35;12.65;;;11.20;99.90;;;;;;5040550;28;20024;-72
2023/11/07 11:50:43;;;;;;;22.85;12.20;;;;;;;;;;5041141;28;20256;-72
2023/11/07 11:53:09;;;;;;;18.35;11.07;;;;;;;;;;5041150;28;20257;-72
2023/11/07 11:55:59;;;;;;;19.92;11.93;;;11.40;97.50;;;;;;5059259;28;20016;-73
2023/11/07 11:58:31;;;;;;;18.63;11.80;;;11.30;99.30;;;;;;5041116;28;20023;-72
2023/11/07 12:00:59;;;;;;;18.35;11.52;;;11.70;99.90;;;;;;5054633;28;20017;-72
2023/11/07 12:03:35;;;;;;;20.35;12.57;;;11.60;97.70;;;;;;5038519;28;20017;-72
2023/11/07 12:06:04;;;;;;;16.67;11.05;;;;;;;;;;5058230;28;20043;-73
2023/11/07 12:08:42;;;;;;;20.58;13.15;;;11.90;99.90;;;;;;5059624;28;20317;-73
2023/11/07 12:11:09;;;;;;;15.32;11.80;;;12.00;98.90;;;;;;5059811;28;20369;-72
2023/11/07 12:13:36;;;;;;;19.02;12.38;;;12.00;99.90;;;;;;5059975;28;20041;-72
2023/11/07 12:16:15;;;;;;;19.15;11.85;;;11.90;96.00;;;;;;5059758;28;20028;-72
2023/11/07 12:18:42;;;;;;;15.00;12.05;;;11.80;96.10;;;;;;5059805;28;20028;-72
2023/11/07 12:21:11;;;;;;;18.10;12.48;;;11.50;99.90;;;;;;5041850;28;20024;-71
2023/11/07 12:23:36;;;;;;;16.42;13.05;;;11.50;98.70;;;;;;5059664;28;20035;-72
2023/11/07 12:26:03;;;;;;;17.95;12.48;;;12.00;97.50;;;;;;5059640;28;20021;-72
2023/11/07 12:28:29;;;;;;;18.83;12.25;;;;;;;;;;5052091;28;20029;-72
2023/11/07 12:30:56;;;;;;;15.30;11.50;;;11.90;98.20;;;;;;5057325;28;20217;-73
2023/11/07 12:33:22;;;;;;;19.38;11.85;;;;;;;;;;5025189;28;20037;-72
2023/11/07 12:35:55;;;;;;;18.00;11.98;;;11.90;99.90;;;;;;5059230;28;20340;-72
2023/11/07 12:38:21;;;;;;;21.08;13.40;;;11.90;96.60;;;;;;5059669;28;20033;-72
2023/11/07 12:40:48;;;;;;;21.30;11.88;;;12.00;99.90;;;;;;5059299;28;20368;-72
2023/11/07 12:43:15;;;;;;;19.65;12.88;;;11.90;99.90;;;;;;5058736;28;20020;-71
2023/11/07 12:45:45;;;;;;;17.80;11.82;;;12.20;99.90;;;;;;5006001;28;20028;-71
2023/11/07 12:48:10;;;;;;;18.88;12.68;;;12.20;98.90;;;;;;5039679;28;20318;-72
2023/11/07 12:50:42;;;;;;;22.42;13.02;;;12.40;95.30;;;;;;5038769;28;20061;-71
2023/11/07 12:53:09;;;;;;;21.90;12.32;;;13.00;99.30;;;;;;5023072;28;20029;-72
2023/11/07 12:55:37;;;;;;;17.90;12.55;;;13.20;93.80;;;;;;5023227;28;20030;-71
2023/11/07 12:58:04;;;;;;;19.92;11.95;;;17.90;91.40;;;;;;5023054;28;20340;-72
2023/11/07 13:00:50;;;;;;;17.08;12.07;;;20.60;81.00;;;;;;5024014;28;20033;-72
2023/11/07 13:03:22;;;;;;;15.32;10.20;;;24.50;65.70;;;;;;5036080;28;20029;-72
2023/11/07 13:05:58;;;;;;;12.70;9.43;;;24.30;59.30;;;;;;5025464;28;20362;-72
2023/11/07 13:08:33;;;;;;;14.48;9.93;;;24.40;58.40;;;;;;5042880;28;20021;-72
2023/11/07 13:11:08;;;;;;;12.95;9.13;;;22.00;63.50;;;;;;5042650;28;20021;-72
2023/11/07 13:13:34;;;;;;;13.60;9.75;;;20.60;67.30;;;;;;5025574;28;20026;-72
2023/11/07 13:16:00;;;;;;;12.07;9.57;;;20.20;68.80;;;;;;5005064;28;20048;-72
2023/11/07 13:18:25;;;;;;;14.38;9.50;;;19.50;68.30;;;;;;5022868;28;20345;-72